Time;durP1;ratioP1;P1;durP2;ratioP2;P2;SDS_P1;SDS_P2;PMS_P1;PMS_P2;Temp;Humidity;BMP_temperature;BMP_pressure;BME280_temperature;BME280_humidity;BME280_pressure;Samples;Min_cycle;Max_cycle;Signal;HPM_P1;HPM_P2
2022/05/06 00:00:30;;;;;;;;;;;;;;;11.60;73.75;102438.63;4965324;28;19918;-66
2022/05/06 00:02:55;;;;;;;;;;;;;;;11.58;74.38;102445.66;4968997;28;20319;-67
2022/05/06 00:05:20;;;;;;;;;;;;;;;11.57;73.15;102449.19;4968303;28;19914;-67
2022/05/06 00:07:46;;;;;;;;;;;;;;;11.58;72.29;102444.81;4968219;28;19918;-66
2022/05/06 00:10:11;;;;;;;;;;;;;;;11.58;72.35;102448.25;4978604;28;20330;-67
2022/05/06 00:12:36;;;;;;;;;;;;;;;11.57;72.77;102436.19;4968270;28;20286;-66
2022/05/06 00:15:02;;;;;;;;;;;;;;;11.58;71.68;102445.66;4987231;28;20267;-67
2022/05/06 00:17:27;;;;;;;;;;;;;;;11.58;70.36;102440.44;4987746;28;19913;-66
2022/05/06 00:19:53;;;;;;;;;;;;;;;11.60;70.82;102446.41;4964484;28;19922;-68
2022/05/06 00:22:18;;;;;;;;;;;;;;;11.62;72.83;102441.13;4968475;28;19914;-67
2022/05/06 00:24:43;;;;;;;;;;;;;;;11.58;72.85;102443.06;4968288;28;19952;-67
2022/05/06 00:27:09;;;;;;;;;;;;;;;11.54;72.94;102439.00;4966439;28;19956;-67
2022/05/06 00:29:34;;;;;;;;;;;;;;;11.53;72.45;102452.91;4958102;28;19922;-67
2022/05/06 00:31:59;;;;;;;;;;;;;;;11.49;71.38;102446.22;4962470;28;19957;-67
2022/05/06 00:34:25;;;;;;;;;;;;;;;11.49;71.36;102448.81;4968095;28;19917;-66
2022/05/06 00:36:50;;;;;;;;;;;;;;;11.51;70.78;102449.56;4967870;28;19910;-66
2022/05/06 00:39:15;;;;;;;;;;;;;;;11.52;70.64;102445.19;4960746;28;19981;-67
2022/05/06 00:41:41;;;;;;;;;;;;;;;11.51;70.99;102449.56;4959231;28;19914;-66
2022/05/06 00:44:06;;;;;;;;;;;;;;;11.51;70.31;102444.34;4979135;28;20001;-67
2022/05/06 00:46:37;;;;;;;;;;;;;;;11.51;69.78;102444.34;4948442;28;20331;-67
2022/05/06 00:49:03;;;;;;;;;;;;;;;11.48;70.07;102444.56;4951829;28;20660;-67
2022/05/06 00:51:29;;;;;;;;;;;;;;;11.47;69.58;102448.09;4969151;28;20036;-68
2022/05/06 00:53:55;;;;;;;;;;;;;;;11.44;69.58;102443.88;4972484;28;20316;-66
2022/05/06 00:56:24;;;;;;;;;;;;;;;11.42;70.31;102450.13;4965201;28;19929;-67
2022/05/06 00:58:50;;;;;;;;;;;;;;;11.40;70.05;102446.75;4956388;28;20362;-66
2022/05/06 01:01:15;;;;;;;;;;;;;;;11.38;69.58;102448.63;4969874;28;19921;-66
2022/05/06 01:03:40;;;;;;;;;;;;;;;11.34;70.11;102449.72;4972026;28;20374;-67
2022/05/06 01:06:07;;;;;;;;;;;;;;;11.31;69.57;102442.13;4961615;28;19914;-66
2022/05/06 01:08:34;;;;;;;;;;;;;;;11.30;69.43;102445.66;4981680;28;19922;-66
2022/05/06 01:10:59;;;;;;;;;;;;;;;11.29;69.45;102443.94;4951580;28;20374;-66
2022/05/06 01:13:24;;;;;;;;;;;;;;;11.27;69.90;102441.44;4963438;28;20342;-67
2022/05/06 01:15:49;;;;;;;;;;;;;;;11.26;69.98;102442.38;4990045;28;19977;-66
2022/05/06 01:18:15;;;;;;;;;;;;;;;11.25;70.31;102442.47;4954160;28;19918;-66
2022/05/06 01:20:48;;;;;;;;;;;;;;;11.24;69.85;102443.38;4982053;28;19932;-67
2022/05/06 01:23:13;;;;;;;;;;;;;;;11.22;69.25;102442.66;4951729;28;19973;-67
2022/05/06 01:25:39;;;;;;;;;;;;;;;11.21;71.31;102451.38;4952059;28;19937;-67
2022/05/06 01:28:05;;;;;;;;;;;;;;;11.17;70.30;102446.34;4952945;28;19929;-68
2022/05/06 01:30:37;;;;;;;;;;;;;;;11.17;69.68;102448.94;4952327;28;19914;-67
2022/05/06 01:33:07;;;;;;;;;;;;;;;11.15;70.98;102457.75;4967108;28;19960;-66
2022/05/06 01:35:38;;;;;;;;;;;;;;;11.09;69.64;102448.56;4961733;28;19914;-67
2022/05/06 01:38:04;;;;;;;;;;;;;;;11.08;70.30;102452.09;4955558;28;19993;-67
2022/05/06 01:40:31;;;;;;;;;;;;;;;11.04;71.10;102454.94;4951497;28;19914;-66
2022/05/06 01:42:57;;;;;;;;;;;;;;;10.98;70.25;102453.53;4952008;28;19958;-67
2022/05/06 01:45:24;;;;;;;;;;;;;;;10.96;70.57;102452.78;4950837;28;19933;-68
2022/05/06 01:47:54;;;;;;;;;;;;;;;10.94;70.16;102459.81;4964676;28;19922;-67
2022/05/06 01:50:23;;;;;;;;;;;;;;;10.90;69.88;102456.56;4969071;28;19910;-66
2022/05/06 01:52:50;;;;;;;;;;;;;;;10.84;70.27;102458.69;4955985;28;19918;-66
2022/05/06 01:55:15;;;;;;;;;;;;;;;10.77;70.38;102467.72;4970547;28;19918;-67
2022/05/06 01:57:41;;;;;;;;;;;;;;;10.71;70.56;102462.88;4964554;28;20311;-67
2022/05/06 02:00:07;;;;;;;;;;;;;;;10.62;72.07;102464.22;4969891;28;19936;-68
2022/05/06 02:02:32;;;;;;;;;;;;;;;10.49;70.70;102469.25;4970292;28;19914;-66
2022/05/06 02:07:41;;;;;;;;;;;;;;;10.35;71.76;102471.75;4980816;28;19964;-67
2022/05/06 02:10:07;;;;;;;;;;;;;;;10.20;71.48;102457.00;4970958;28;19942;-66
2022/05/06 02:12:33;;;;;;;;;;;;;;;10.22;70.86;102465.53;4965487;28;19962;-66
2022/05/06 02:14:58;;;;;;;;;;;;;;;10.17;72.36;102454.56;4989119;28;19920;-66
2022/05/06 02:17:25;;;;;;;;;;;;;;;10.13;71.95;102460.84;4970861;28;19922;-68
2022/05/06 02:19:50;;;;;;;;;;;;;;;10.08;72.07;102459.31;4951398;28;19914;-66
2022/05/06 02:22:15;;;;;;;;;;;;;;;10.07;72.78;102462.00;4953663;28;20263;-66
2022/05/06 02:24:41;;;;;;;;;;;;;;;10.02;73.66;102464.84;4969743;28;19924;-67
2022/05/06 02:27:07;;;;;;;;;;;;;;;9.94;72.51;102467.00;4963029;28;19945;-66
2022/05/06 02:29:32;;;;;;;;;;;;;;;9.88;74.19;102462.16;4950747;28;20355;-67
2022/05/06 02:34:47;;;;;;;;;;;;;;;9.84;72.49;102466.63;4933279;28;20433;-67
2022/05/06 02:37:12;;;;;;;;;;;;;;;9.84;72.04;102473.59;4939116;29;19923;-67
2022/05/06 02:39:38;;;;;;;;;;;;;;;9.85;72.45;102470.06;4928683;29;20284;-69
2022/05/06 02:42:03;;;;;;;;;;;;;;;9.83;72.95;102464.97;4962876;28;20309;-66
2022/05/06 02:44:28;;;;;;;;;;;;;;;9.83;72.65;102464.13;4967274;28;20243;-67
2022/05/06 02:46:53;;;;;;;;;;;;;;;9.83;73.79;102464.13;4952997;28;19974;-67
2022/05/06 02:49:19;;;;;;;;;;;;;;;9.86;72.78;102466.56;4943959;28;19914;-66
2022/05/06 02:51:44;;;;;;;;;;;;;;;9.87;73.41;102464.81;4967249;28;20329;-66
2022/05/06 02:54:09;;;;;;;;;;;;;;;9.87;73.26;102460.47;4935946;28;20315;-67
2022/05/06 02:56:34;;;;;;;;;;;;;;;9.88;73.12;102456.97;4945047;29;20093;-66
2022/05/06 02:58:59;;;;;;;;;;;;;;;9.91;73.31;102466.31;4962471;28;19917;-67
2022/05/06 03:01:25;;;;;;;;;;;;;;;9.88;74.64;102462.16;4955722;28;19950;-68
2022/05/06 03:03:51;;;;;;;;;;;;;;;9.81;73.66;102460.81;4947699;28;19915;-66
2022/05/06 03:06:17;;;;;;;;;;;;;;;9.78;74.68;102450.59;4947409;29;20461;-67
2022/05/06 03:08:42;;;;;;;;;;;;;;;9.75;73.35;102455.94;4932973;29;20017;-66
2022/05/06 03:11:08;;;;;;;;;;;;;;;9.72;74.65;102456.09;4933130;29;19914;-66
2022/05/06 03:13:33;;;;;;;;;;;;;;;9.68;74.81;102459.75;4949810;28;19910;-67
2022/05/06 03:15:59;;;;;;;;;;;;;;;9.64;74.27;102460.84;4970935;28;19914;-66
2022/05/06 03:18:26;;;;;;;;;;;;;;;9.61;72.78;102464.41;4955822;28;19914;-66
2022/05/06 03:20:51;;;;;;;;;;;;;;;9.58;72.97;102460.22;4952099;28;19918;-66
2022/05/06 03:23:16;;;;;;;;;;;;;;;9.56;73.48;102461.22;4969143;28;19964;-67
2022/05/06 03:25:41;;;;;;;;;;;;;;;9.54;74.42;102453.53;4969496;28;20318;-67
2022/05/06 03:28:09;;;;;;;;;;;;;;;9.54;74.79;102452.69;4969146;28;20350;-67
2022/05/06 03:30:40;;;;;;;;;;;;;;;9.54;74.71;102463.06;4968897;28;20021;-67
2022/05/06 03:33:08;;;;;;;;;;;;;;;9.52;74.92;102455.38;4983429;28;19914;-67
2022/05/06 03:35:34;;;;;;;;;;;;;;;9.51;74.43;102453.66;4968936;28;19952;-66
2022/05/06 03:37:59;;;;;;;;;;;;;;;9.52;74.26;102460.56;4968927;28;20338;-66
2022/05/06 03:40:24;;;;;;;;;;;;;;;9.53;73.75;102457.03;4968796;28;19941;-66
2022/05/06 03:42:49;;;;;;;;;;;;;;;9.55;74.37;102464.72;4951175;28;20323;-66
2022/05/06 03:45:15;;;;;;;;;;;;;;;9.56;75.39;102459.44;4950144;28;20017;-66
2022/05/06 03:47:40;;;;;;;;;;;;;;;9.57;74.99;102461.13;4968604;28;19918;-66
2022/05/06 03:52:50;;;;;;;;;;;;;;;9.63;74.89;102461.72;4967017;28;19924;-67
2022/05/06 03:55:16;;;;;;;;;;;;;;;9.64;75.32;102455.66;4967563;28;19918;-67
2022/05/06 03:57:42;;;;;;;;;;;;;;;9.63;77.18;102449.59;4968034;28;19957;-66
2022/05/06 04:00:08;;;;;;;;;;;;;;;9.60;75.19;102459.31;4966953;28;19942;-67
2022/05/06 04:02:35;;;;;;;;;;;;;;;9.56;74.93;102461.22;4966950;28;19910;-66
2022/05/06 04:05:00;;;;;;;;;;;;;;;9.56;75.00;102467.22;4977607;28;19914;-66
2022/05/06 04:07:25;;;;;;;;;;;;;;;9.57;74.52;102468.91;4967293;28;19914;-66
2022/05/06 04:09:50;;;;;;;;;;;;;;;9.60;74.79;102467.09;4962003;28;19914;-66
2022/05/06 04:12:15;;;;;;;;;;;;;;;9.61;73.71;102476.53;4965574;28;19918;-67
2022/05/06 04:14:41;;;;;;;;;;;;;;;9.60;74.36;102480.03;4966752;28;19918;-66
2022/05/06 04:17:06;;;;;;;;;;;;;;;9.58;75.03;102469.75;4966636;28;19922;-66
2022/05/06 04:19:32;;;;;;;;;;;;;;;9.57;74.85;102473.25;4967626;28;19937;-66
2022/05/06 04:24:41;;;;;;;;;;;;;;;9.53;74.72;102470.00;4967302;28;20005;-66
2022/05/06 04:27:06;;;;;;;;;;;;;;;9.55;74.67;102473.31;4966839;28;19918;-67
2022/05/06 04:29:31;;;;;;;;;;;;;;;9.57;74.38;102474.06;4976181;28;19921;-67
2022/05/06 04:31:57;;;;;;;;;;;;;;;9.56;75.17;102469.81;4967645;28;20269;-65
2022/05/06 04:34:22;;;;;;;;;;;;;;;9.55;75.25;102470.75;4966819;28;20013;-64
2022/05/06 04:36:47;;;;;;;;;;;;;;;9.54;75.84;102476.84;4965666;28;19921;-66
2022/05/06 04:39:12;;;;;;;;;;;;;;;9.54;74.84;102474.25;4966981;28;19921;-65
2022/05/06 04:41:37;;;;;;;;;;;;;;;9.52;76.14;102476.09;4965896;28;20281;-67
2022/05/06 04:44:03;;;;;;;;;;;;;;;9.51;75.75;102474.38;4968119;28;20323;-66
2022/05/06 04:46:28;;;;;;;;;;;;;;;9.49;75.96;102480.56;4966107;28;20354;-66
2022/05/06 04:48:53;;;;;;;;;;;;;;;9.49;75.92;102486.59;4975221;28;20512;-66
2022/05/06 04:51:18;;;;;;;;;;;;;;;9.51;76.44;102495.09;4975275;28;20342;-66
2022/05/06 04:53:44;;;;;;;;;;;;;;;9.53;76.93;102498.47;4967464;28;19918;-66
2022/05/06 04:56:09;;;;;;;;;;;;;;;9.52;77.34;102496.81;4961308;28;19918;-66
2022/05/06 04:58:35;;;;;;;;;;;;;;;9.47;78.90;102492.78;4948852;28;19910;-66
2022/05/06 05:01:00;;;;;;;;;;;;;;;9.42;78.56;102505.94;4948609;28;19957;-66
2022/05/06 05:03:25;;;;;;;;;;;;;;;9.35;78.63;102504.59;4948727;28;19954;-65
2022/05/06 05:05:50;;;;;;;;;;;;;;;9.26;76.39;102505.03;4953321;28;19964;-66
2022/05/06 05:08:16;;;;;;;;;;;;;;;9.22;77.44;102503.50;4956055;28;20252;-66
2022/05/06 05:10:41;;;;;;;;;;;;;;;9.21;76.94;102507.00;4949171;28;19919;-66
2022/05/06 05:13:06;;;;;;;;;;;;;;;9.18;77.86;102507.16;4948703;28;19914;-66
2022/05/06 05:15:31;;;;;;;;;;;;;;;9.18;78.27;102512.34;4953491;28;19976;-66
2022/05/06 05:17:57;;;;;;;;;;;;;;;9.19;76.79;102514.84;4977458;28;20367;-66
2022/05/06 05:20:22;;;;;;;;;;;;;;;9.08;76.81;102516.28;4963394;28;20393;-66
2022/05/06 05:22:47;;;;;;;;;;;;;;;9.08;77.36;102511.09;4964524;28;19914;-66
2022/05/06 05:25:13;;;;;;;;;;;;;;;9.09;77.62;102513.63;4963300;28;19918;-66
2022/05/06 05:27:38;;;;;;;;;;;;;;;9.13;77.92;102503.97;4970668;28;19969;-66
2022/05/06 05:30:04;;;;;;;;;;;;;;;9.15;77.05;102507.31;4966426;28;20310;-68
2022/05/06 05:32:30;;;;;;;;;;;;;;;9.04;77.34;102505.22;4968041;28;19968;-66
2022/05/06 05:34:55;;;;;;;;;;;;;;;9.10;77.46;102514.44;4966283;28;20346;-67
2022/05/06 05:37:22;;;;;;;;;;;;;;;9.13;77.94;102514.31;4965719;28;19940;-66
2022/05/06 05:39:47;;;;;;;;;;;;;;;9.20;77.92;102510.50;4969235;28;19918;-67
2022/05/06 05:42:18;;;;;;;;;;;;;;;9.25;78.11;102514.53;4968415;28;19980;-65
2022/05/06 05:50:12;;;;;;;;;;;;;;;9.35;78.35;102508.91;4987770;28;19969;-66
2022/05/06 05:52:37;;;;;;;;;;;;;;;9.36;77.18;102514.03;4990756;28;20346;-67
2022/05/06 05:55:03;;;;;;;;;;;;;;;9.31;76.43;102513.41;4975544;28;20425;-66
2022/05/06 05:57:28;;;;;;;;;;;;;;;9.24;77.54;102514.63;4966414;28;20279;-65
2022/05/06 05:59:54;;;;;;;;;;;;;;;9.26;77.87;102516.22;4966959;28;19957;-65
2022/05/06 06:02:20;;;;;;;;;;;;;;;9.33;77.52;102516.75;4952001;28;19910;-66
2022/05/06 06:04:45;;;;;;;;;;;;;;;9.38;77.95;102509.59;4951891;28;19918;-70
2022/05/06 06:07:11;;;;;;;;;;;;;;;9.41;77.28;102508.63;4964431;28;20355;-66
2022/05/06 06:09:37;;;;;;;;;;;;;;;9.47;77.92;102509.16;4970661;28;19918;-66
2022/05/06 06:12:02;;;;;;;;;;;;;;;9.52;77.35;102507.16;4969540;28;20375;-66
2022/05/06 06:14:27;;;;;;;;;;;;;;;9.57;77.57;102505.16;4951454;28;20318;-67
2022/05/06 06:16:52;;;;;;;;;;;;;;;9.63;77.45;102518.72;4965887;28;19925;-66
2022/05/06 06:19:17;;;;;;;;;;;;;;;9.65;77.58;102516.91;4970537;28;19914;-66
2022/05/06 06:21:43;;;;;;;;;;;;;;;9.69;76.20;102513.22;4974157;28;19925;-66
2022/05/06 06:24:09;;;;;;;;;;;;;;;9.67;77.19;102515.91;4967389;28;19924;-67
2022/05/06 06:26:34;;;;;;;;;;;;;;;9.68;77.25;102527.09;4956784;28;19922;-66
2022/05/06 06:28:59;;;;;;;;;;;;;;;9.70;77.76;102518.34;4955843;28;19965;-66
2022/05/06 06:31:25;;;;;;;;;;;;;;;9.76;78.16;102525.81;4970316;28;20520;-66
2022/05/06 06:33:50;;;;;;;;;;;;;;;9.78;77.99;102528.31;4969901;28;19920;-66
2022/05/06 06:36:15;;;;;;;;;;;;;;;9.80;79.27;102531.66;4968351;28;19941;-66
2022/05/06 06:38:40;;;;;;;;;;;;;;;9.78;78.98;102525.72;4970254;28;19913;-65
2022/05/06 06:41:06;;;;;;;;;;;;;;;9.79;78.28;102525.63;4969571;28;20422;-68
2022/05/06 06:43:31;;;;;;;;;;;;;;;9.83;78.20;102531.50;4959434;28;20405;-66
2022/05/06 06:45:56;;;;;;;;;;;;;;;9.83;79.84;102541.88;4961541;28;20362;-67
2022/05/06 06:48:22;;;;;;;;;;;;;;;9.82;78.22;102537.63;4954077;28;19953;-69
2022/05/06 06:50:48;;;;;;;;;;;;;;;9.84;78.88;102541.78;4989659;28;19917;-65
2022/05/06 06:53:13;;;;;;;;;;;;;;;9.90;79.05;102543.22;4989024;28;19928;-65
2022/05/06 06:55:39;;;;;;;;;;;;;;;9.96;79.30;102552.44;4981888;28;19918;-66
2022/05/06 06:58:06;;;;;;;;;;;;;;;9.99;76.83;102553.16;4950636;28;19922;-66
2022/05/06 07:00:31;;;;;;;;;;;;;;;9.96;79.21;102558.47;4950834;28;19918;-66
2022/05/06 07:02:57;;;;;;;;;;;;;;;9.96;80.96;102563.66;4952278;28;20778;-65
2022/05/06 07:05:23;;;;;;;;;;;;;;;9.97;77.98;102561.91;4966500;28;19925;-66
2022/05/06 07:13:24;;;;;;;;;;;;;;;9.98;79.21;102567.03;4953670;28;19917;-67
2022/05/06 07:15:49;;;;;;;;;;;;;;;10.06;79.58;102570.06;4957038;28;19924;-67
2022/05/06 07:18:14;;;;;;;;;;;;;;;10.13;80.58;102570.56;4961779;28;19929;-66
2022/05/06 07:20:40;;;;;;;;;;;;;;;10.11;80.03;102562.88;4955588;28;20020;-66
2022/05/06 07:23:06;;;;;;;;;;;;;;;10.15;82.44;102563.56;4966614;28;19924;-66
2022/05/06 07:25:31;;;;;;;;;;;;;;;10.08;79.13;102565.63;4958217;28;19918;-68
2022/05/06 07:27:56;;;;;;;;;;;;;;;10.04;79.35;102571.91;4964348;28;20018;-68
2022/05/06 07:30:22;;;;;;;;;;;;;;;10.10;82.13;102576.75;4965360;28;19918;-66
2022/05/06 07:32:47;;;;;;;;;;;;;;;10.11;81.53;102575.84;4958121;28;20160;-70
2022/05/06 07:35:12;;;;;;;;;;;;;;;10.11;81.26;102583.63;4957065;28;19940;-67
2022/05/06 07:37:37;;;;;;;;;;;;;;;10.13;81.48;102574.91;4966837;28;20423;-66
2022/05/06 07:40:04;;;;;;;;;;;;;;;10.20;80.13;102584.03;4968537;28;19914;-65
2022/05/06 07:42:30;;;;;;;;;;;;;;;10.27;80.79;102580.28;4968925;28;20009;-66
2022/05/06 07:44:56;;;;;;;;;;;;;;;10.34;79.66;102571.25;4967246;28;19953;-66
2022/05/06 07:47:21;;;;;;;;;;;;;;;10.39;80.93;102566.66;4966238;28;19964;-66
2022/05/06 07:49:47;;;;;;;;;;;;;;;10.43;81.19;102570.75;4960485;28;19918;-68
2022/05/06 07:52:12;;;;;;;;;;;;;;;10.44;80.00;102569.00;4965858;28;19925;-66
2022/05/06 07:54:37;;;;;;;;;;;;;;;10.48;80.34;102571.34;4966283;28;20370;-65
2022/05/06 07:57:03;;;;;;;;;;;;;;;10.55;80.62;102562.34;4974750;28;19918;-66
2022/05/06 07:59:28;;;;;;;;;;;;;;;10.64;79.16;102561.81;4950050;28;20361;-66
2022/05/06 08:04:37;;;;;;;;;;;;;;;10.59;79.73;102563.81;4949331;29;19921;-66
2022/05/06 08:07:03;;;;;;;;;;;;;;;10.55;80.93;102572.72;4949350;28;19922;-65
2022/05/06 08:09:29;;;;;;;;;;;;;;;10.61;79.33;102572.38;4955845;28;19925;-68
2022/05/06 08:11:54;;;;;;;;;;;;;;;10.72;80.52;102566.59;4950668;28;20359;-67
2022/05/06 08:14:19;;;;;;;;;;;;;;;10.80;79.26;102571.38;4949031;28;19911;-66
2022/05/06 08:16:45;;;;;;;;;;;;;;;10.91;80.22;102574.22;4949672;28;20032;-67
2022/05/06 08:19:11;;;;;;;;;;;;;;;11.03;79.92;102568.34;4961469;28;19918;-66
2022/05/06 08:21:36;;;;;;;;;;;;;;;11.16;78.55;102566.72;4964004;28;19917;-66
2022/05/06 08:24:02;;;;;;;;;;;;;;;11.26;79.87;102574.00;4986514;28;20407;-68
2022/05/06 08:26:27;;;;;;;;;;;;;;;11.32;79.88;102573.66;4969869;28;19969;-66
2022/05/06 08:28:52;;;;;;;;;;;;;;;11.41;79.99;102573.13;4968530;28;19918;-68
2022/05/06 08:31:17;;;;;;;;;;;;;;;11.52;79.81;102575.94;4968483;28;20351;-67
2022/05/06 08:33:42;;;;;;;;;;;;;;;11.63;80.30;102576.16;4968549;28;20354;-65
2022/05/06 08:36:08;;;;;;;;;;;;;;;11.69;78.77;102570.59;4966830;28;20362;-66
2022/05/06 08:38:33;;;;;;;;;;;;;;;11.73;79.77;102567.84;4961905;28;19925;-66
2022/05/06 08:41:00;;;;;;;;;;;;;;;11.77;78.61;102575.38;4965869;28;19913;-66
2022/05/06 08:43:25;;;;;;;;;;;;;;;11.84;78.76;102568.06;4952295;28;19918;-66
2022/05/06 08:51:21;;;;;;;;;;;;;;;11.94;78.40;102566.63;4954401;28;19952;-66
2022/05/06 08:53:46;;;;;;;;;;;;;;;11.99;79.06;102564.56;4962214;28;19921;-66
2022/05/06 08:56:11;;;;;;;;;;;;;;;12.09;79.40;102570.88;4959850;28;19926;-66
2022/05/06 08:58:37;;;;;;;;;;;;;;;12.16;79.91;102572.19;4954165;28;20373;-66
2022/05/06 09:01:05;;;;;;;;;;;;;;;12.22;78.82;102574.44;4955366;28;19918;-66
2022/05/06 09:03:30;;;;;;;;;;;;;;;12.30;79.34;102567.91;4953797;28;19918;-66
2022/05/06 09:05:59;;;;;;;;;;;;;;;12.41;79.29;102574.13;4962987;28;19924;-68
2022/05/06 09:08:42;;;;;;;;;;;;;;;12.63;79.36;102565.84;4962308;28;19929;-67
2022/05/06 09:11:11;;;;;;;;;;;;;;;12.82;78.95;102565.50;4951854;28;19966;-68
2022/05/06 09:13:51;;;;;;;;;;;;;;;12.93;78.50;102557.03;4959457;28;19925;-66
2022/05/06 09:19:20;;;;;;;;;;;;;;;13.07;77.90;102554.34;4959922;28;19945;-67
2022/05/06 09:22:05;;;;;;;;;;;;;;;13.20;76.44;102565.66;4981395;28;19927;-66
2022/05/06 09:24:31;;;;;;;;;;;;;;;13.26;77.14;102559.25;4965575;28;20374;-65
2022/05/06 09:26:57;;;;;;;;;;;;;;;13.35;77.09;102563.00;4963160;28;19926;-67
2022/05/06 09:29:41;;;;;;;;;;;;;;;13.39;77.04;102562.72;4966370;28;19972;-66
2022/05/06 09:32:19;;;;;;;;;;;;;;;13.53;75.25;102559.19;4952825;28;19920;-66
2022/05/06 09:34:45;;;;;;;;;;;;;;;13.65;76.91;102555.78;4956311;28;20374;-66
2022/05/06 09:37:11;;;;;;;;;;;;;;;13.77;76.32;102564.56;4961002;28;20004;-66
2022/05/06 09:39:39;;;;;;;;;;;;;;;13.82;76.44;102558.09;4955941;28;19961;-66
2022/05/06 09:42:06;;;;;;;;;;;;;;;13.96;76.53;102553.72;4957662;28;20359;-66
2022/05/06 09:44:33;;;;;;;;;;;;;;;14.14;75.88;102562.03;4963425;28;20364;-65
2022/05/06 09:47:11;;;;;;;;;;;;;;;14.30;75.77;102547.81;4956947;28;19922;-66
2022/05/06 09:49:40;;;;;;;;;;;;;;;14.35;76.02;102547.50;4983759;28;19914;-69
2022/05/06 09:52:23;;;;;;;;;;;;;;;14.43;76.37;102545.19;4990617;28;20432;-66
2022/05/06 09:54:48;;;;;;;;;;;;;;;14.62;76.02;102542.13;4952396;28;20001;-66
2022/05/06 09:57:14;;;;;;;;;;;;;;;14.78;75.49;102537.47;4962644;28;20342;-66
2022/05/06 09:59:40;;;;;;;;;;;;;;;14.90;75.33;102534.91;4953221;28;20346;-65
2022/05/06 10:02:05;;;;;;;;;;;;;;;14.98;74.87;102537.81;4951608;29;20377;-69
2022/05/06 10:04:31;;;;;;;;;;;;;;;15.12;74.67;102529.78;4983541;28;20385;-66
2022/05/06 10:06:57;;;;;;;;;;;;;;;15.24;74.03;102531.50;4971232;28;19918;-66
2022/05/06 10:09:25;;;;;;;;;;;;;;;15.28;73.44;102525.09;4969914;28;19996;-66
2022/05/06 10:11:51;;;;;;;;;;;;;;;15.43;72.46;102530.16;4984314;28;20387;-66
2022/05/06 10:14:17;;;;;;;;;;;;;;;15.50;73.50;102521.72;4969175;28;20389;-66
2022/05/06 10:16:42;;;;;;;;;;;;;;;15.62;72.65;102523.44;4970068;28;19918;-66
2022/05/06 10:19:24;;;;;;;;;;;;;;;15.78;73.37;102517.88;4969070;28;19965;-69
2022/05/06 10:21:49;;;;;;;;;;;;;;;16.01;72.23;102523.13;4962001;28;20009;-65
2022/05/06 10:24:15;;;;;;;;;;;;;;;16.09;70.66;102510.25;4950506;28;20012;-67
2022/05/06 10:26:45;;;;;;;;;;;;;;;16.05;70.91;102514.03;4953985;28;19960;-66
2022/05/06 10:32:41;;;;;;;;;;;;;;;16.18;71.17;102509.53;4966412;28;19977;-65
2022/05/06 10:35:10;;;;;;;;;;;;;;;16.25;68.33;102510.72;4969836;28;19917;-66
2022/05/06 10:37:36;;;;;;;;;;;;;;;16.24;68.62;102503.81;4959672;28;19922;-67
2022/05/06 10:40:20;;;;;;;;;;;;;;;16.31;69.29;102515.47;4968270;28;19980;-66
2022/05/06 10:42:46;;;;;;;;;;;;;;;16.43;69.19;102511.88;4969666;28;19913;-66
2022/05/06 10:45:31;;;;;;;;;;;;;;;16.49;69.40;102504.47;4954707;28;19926;-66
2022/05/06 10:47:56;;;;;;;;;;;;;;;16.65;69.07;102502.31;4951033;28;19961;-69
2022/05/06 10:50:24;;;;;;;;;;;;;;;16.79;68.27;102504.66;4987157;28;19917;-68
2022/05/06 10:52:50;;;;;;;;;;;;;;;16.86;67.83;102500.59;4972091;28;19918;-69
2022/05/06 10:55:16;;;;;;;;;;;;;;;16.96;66.84;102501.47;4950321;28;19953;-66
2022/05/06 10:57:48;;;;;;;;;;;;;;;17.04;66.86;102498.25;4951128;28;19952;-67
2022/05/06 11:00:13;;;;;;;;;;;;;;;17.08;66.03;102504.06;4950948;28;20323;-67
2022/05/06 11:02:38;;;;;;;;;;;;;;;17.16;65.54;102506.88;4969761;28;19918;-68
2022/05/06 11:05:07;;;;;;;;;;;;;;;17.13;63.45;102501.88;4962591;28;19961;-65
2022/05/06 11:07:34;;;;;;;;;;;;;;;17.18;65.80;102504.97;4951688;28;19929;-66
2022/05/06 11:10:06;;;;;;;;;;;;;;;17.29;64.82;102507.53;4964848;28;19925;-66
2022/05/06 11:13:37;;;;;;;13.32;12.02;;;;;;;17.28;60.44;102495.38;5083228;28;20397;-65
2022/05/06 11:16:07;;;;;;;11.55;10.18;;;;;;;17.59;60.05;102493.63;5084285;28;20032;-66
2022/05/06 11:18:41;;;;;;;12.30;10.98;;;;;;;17.42;60.16;102491.59;5065710;28;20104;-69
2022/05/06 11:21:22;;;;;;;11.63;10.43;;;;;;;17.69;60.29;102484.00;5066429;28;20025;-66
2022/05/06 11:23:47;;;;;;;12.40;11.18;;;;;;;17.45;57.50;102465.94;5059285;28;20009;-66
2022/05/06 11:26:23;;;;;;;13.13;11.60;;;;;;;17.55;58.70;102488.75;5061686;28;20036;-68
2022/05/06 11:29:03;;;;;;;12.82;11.38;;;;;;;17.67;60.50;102487.72;5063724;28;20477;-67
2022/05/06 11:31:28;;;;;;;13.23;11.93;;;;;;;17.49;57.06;102483.09;5063352;28;20043;-69
2022/05/06 11:33:58;;;;;;;12.43;11.20;;;;;;;17.48;57.23;102486.66;5063375;28;20021;-66
2022/05/06 11:36:24;;;;;;;13.05;11.70;;;;;;;17.53;57.98;102478.41;5059477;28;20045;-66
2022/05/06 11:38:49;;;;;;;13.55;12.25;;;;;;;17.68;59.04;102481.50;5043771;28;20037;-67
2022/05/06 11:41:17;;;;;;;14.90;13.32;;;;;;;17.96;60.25;102483.47;5053518;28;20024;-69
2022/05/06 11:43:44;;;;;;;12.40;11.13;;;;;;;18.03;58.68;102475.88;5057940;28;20733;-68
2022/05/06 11:49:04;;;;;;;8.30;7.40;;;;;;;18.10;55.83;102465.66;5053168;28;20044;-67
2022/05/06 11:51:34;;;;;;;10.35;7.10;;;;;;;18.35;56.62;102462.56;5058047;28;20516;-69
2022/05/06 11:54:01;;;;;;;10.95;9.85;;;;;;;18.41;56.47;102467.25;5057025;28;20182;-67
2022/05/06 11:56:27;;;;;;;10.85;9.73;;;;;;;18.39;55.98;102468.34;5058220;28;20056;-67
2022/05/06 11:58:57;;;;;;;11.30;10.15;;;;;;;18.43;55.89;102460.06;5070702;28;20067;-67
2022/05/06 12:01:30;;;;;;;12.20;10.52;;;;;;;18.35;55.25;102459.94;5063386;28;20043;-66
2022/05/06 12:04:09;;;;;;;14.00;11.23;;;;;;;18.49;56.48;102449.00;5063214;28;20032;-67
2022/05/06 12:06:41;;;;;;;13.02;11.63;;;;;;;18.57;56.26;102449.13;5061226;28;20029;-67
2022/05/06 12:09:06;;;;;;;11.85;10.35;;;;;;;19.04;54.13;102454.56;5046852;28;20503;-67
2022/05/06 12:11:32;;;;;;;13.10;10.27;;;;;;;19.23;54.34;102456.31;5042568;28;20080;-67
2022/05/06 12:14:05;;;;;;;12.98;10.98;;;;;;;19.02;54.29;102451.22;5069073;28;20650;-67
2022/05/06 12:16:30;;;;;;;13.73;12.00;;;;;;;19.03;53.15;102444.97;5081499;28;20032;-67
2022/05/06 12:18:58;;;;;;;13.35;11.73;;;;;;;19.28;54.58;102443.56;5054619;28;20040;-70
2022/05/06 12:21:27;;;;;;;13.18;11.25;;;;;;;19.35;51.99;102449.06;5042667;28;20556;-67
2022/05/06 12:23:55;;;;;;;14.52;11.35;;;;;;;19.28;52.01;102442.75;5050409;28;20049;-67
2022/05/06 12:26:34;;;;;;;;;;;;;;;19.60;54.85;102437.09;5044583;28;20400;-67
2022/05/06 12:29:01;;;;;;;14.20;10.00;;;;;;;19.70;51.77;102447.59;5042269;28;19916;-67
2022/05/06 12:31:31;;;;;;;12.30;9.68;;;;;;;19.55;50.25;102432.22;5048920;28;20064;-67
2022/05/06 12:34:07;;;;;;;13.40;10.18;;;;;;;19.49;51.33;102438.06;5049346;28;20459;-67
2022/05/06 12:36:33;;;;;;;13.13;10.40;;;;;;;19.55;52.83;102419.06;5049178;28;20431;-69
2022/05/06 12:38:58;;;;;;;13.48;10.15;;;;;;;19.60;50.76;102437.09;5035650;28;20477;-67
2022/05/06 12:41:26;;;;;;;12.70;8.73;;;;;;;19.84;51.67;102436.56;5029032;28;20036;-68
2022/05/06 12:43:56;;;;;;;9.45;7.00;;;;;;;19.77;47.96;102438.13;5028919;28;20024;-70
2022/05/06 12:46:28;;;;;;;12.02;9.05;;;;;;;19.65;47.25;102423.50;5040378;28;20032;-69
2022/05/06 12:51:41;;;;;;;13.63;10.85;;;;;;;19.75;48.99;102434.81;5037576;28;20124;-66
2022/05/06 12:54:09;;;;;;;14.45;11.00;;;;;;;19.65;48.74;102428.78;5033271;28;20029;-67
2022/05/06 12:56:35;;;;;;;12.05;8.70;;;;;;;19.87;48.40;102410.78;5051099;28;20021;-67
2022/05/06 12:59:00;;;;;;;11.57;7.80;;;;;;;19.86;48.20;102416.19;5048551;28;20029;-69
2022/05/06 13:01:25;;;;;;;13.50;9.38;;;;;;;19.87;47.93;102413.41;5043313;28;20347;-67
2022/05/06 13:03:51;;;;;;;11.55;9.25;;;;;;;20.08;47.45;102409.69;5033810;28;20037;-68
2022/05/06 13:06:16;;;;;;;11.13;8.85;;;;;;;19.97;47.61;102400.19;5028640;28;20496;-72